Los Lunas ASC Data

Date Time Air Temperature Relative Humidity Dewpoint Windchill Heat Index Wind Speed Wind Dir. Rain Solar Radiation Soil Temperature
2m 2m 3m 3m 10cm
US/Mountain F % F F F MPH deg in MJ/m^2 F
max avg avg
2021-02-23 00:05:00 31.1 58.8 18.4 31.1 31.1 0.0 0.0 0.0 5.0 0.0 0.00 0.0000000 43.7
2021-02-23 00:10:00 30.9 60.2 18.7 30.9 30.9 0.0 0.0 0.0 246.8 0.0 0.00 0.0000000 43.6
2021-02-23 00:15:00 31.0 60.7 19.0 31.0 31.0 1.5 1.9 1.1 47.2 12.6 0.00 0.0000000 43.5
2021-02-23 00:20:00 30.1 60.1 17.9 30.1 30.1 0.0 2.1 0.7 37.5 81.5 0.00 0.0000000 43.4
2021-02-23 00:25:00 29.7 62.1 18.3 29.7 29.7 1.7 2.2 1.7 33.7 18.6 0.00 0.0000000 43.4
2021-02-23 00:30:00 30.1 61.0 18.3 30.1 30.1 1.0 1.9 1.4 200.2 9.9 0.00 0.0000000 43.3
2021-02-23 00:35:00 30.1 61.8 18.6 30.1 30.1 0.0 1.3 0.4 0.2 216.8 0.00 0.0000000 43.2
2021-02-23 00:40:00 30.0 61.1 18.2 30.0 30.0 0.0 1.7 0.4 171.8 345.9 0.00 0.0000000 43.1
2021-02-23 00:45:00 29.5 62.2 18.2 29.5 29.5 1.5 1.9 1.3 205.2 187.8 0.00 0.0000000 43.0
2021-02-23 00:50:00 29.2 62.2 17.9 29.2 29.2 1.2 2.4 1.7 198.3 210.5 0.00 0.0000000 42.9
2021-02-23 00:55:00 28.9 64.4 18.4 28.9 28.9 0.0 1.3 0.2 29.6 197.9 0.00 0.0000000 42.8
2021-02-23 01:00:00 29.1 65.8 19.1 29.1 29.1 1.5 1.5 0.7 44.1 19.3 0.00 0.0000000 42.8
2021-02-23 01:05:00 29.4 64.3 18.8 29.4 29.4 1.0 3.0 1.9 23.5 37.9 0.00 0.0000000 42.7
2021-02-23 01:10:00 29.0 64.4 18.5 29.0 29.0 0.8 1.2 0.7 209.4 213.0 0.00 0.0000000 42.6
2021-02-23 01:15:00 29.0 65.0 18.7 29.0 29.0 0.0 0.8 0.1 174.9 214.8 0.00 0.0000000 42.5
2021-02-23 01:20:00 28.7 64.6 18.2 28.7 28.7 1.5 1.9 0.8 200.2 205.5 0.00 0.0000000 42.4
2021-02-23 01:25:00 28.1 66.2 18.2 28.1 28.1 1.7 1.9 1.6 173.2 186.1 0.00 0.0000000 42.4
2021-02-23 01:30:00 27.9 66.8 18.4 27.9 27.9 1.3 2.1 0.5 281.5 185.1 0.00 0.0000000 42.3
2021-02-23 01:35:00 28.3 65.5 18.2 28.3 28.3 1.3 1.5 0.8 248.0 261.1 0.00 0.0000000 42.2
2021-02-23 01:40:00 28.3 65.9 18.4 28.3 28.3 1.2 1.3 0.3 35.4 316.3 0.00 0.0000000 42.1
2021-02-23 01:45:00 27.8 65.3 17.7 27.8 27.8 3.0 3.1 1.9 54.4 54.9 0.00 0.0000000 42.0
2021-02-23 01:50:00 26.7 69.8 18.1 26.7 26.7 0.0 3.7 1.8 101.8 61.8 0.00 0.0000000 42.0
2021-02-23 01:55:00 26.8 69.2 18.0 26.8 26.8 1.9 1.9 0.2 208.9 208.3 0.00 0.0000000 41.9
2021-02-23 02:00:00 27.2 69.2 18.5 27.2 27.2 1.3 2.1 1.6 287.0 233.7 0.00 0.0000000 41.8
2021-02-23 02:05:00 27.7 67.8 18.5 27.7 27.7 1.0 1.9 1.1 250.6 282.4 0.00 0.0000000 41.7
2021-02-23 02:10:00 27.8 67.4 18.5 27.8 27.8 0.0 1.9 0.5 3.3 295.3 0.00 0.0000000 41.6
2021-02-23 02:15:00 28.2 67.1 18.7 28.2 28.2 2.2 2.6 1.6 235.8 307.4 0.00 0.0000000 41.6
2021-02-23 02:20:00 27.8 66.7 18.1 27.8 27.8 1.0 2.1 0.5 300.6 240.0 0.00 0.0000000 41.5
2021-02-23 02:25:00 28.3 65.6 18.3 28.3 28.3 1.2 1.9 1.0 279.4 309.8 0.00 0.0000000 41.4
2021-02-23 02:30:00 28.3 66.4 18.5 28.3 28.3 0.0 1.2 0.1 237.5 267.3 0.00 0.0000000 41.3
2021-02-23 02:35:00 27.8 66.8 18.2 27.8 27.8 0.0 0.0 0.0 252.1 0.0 0.00 0.0000000 41.3
2021-02-23 02:40:00 27.7 67.0 18.1 27.7 27.7 0.8 1.7 0.7 257.6 259.5 0.00 0.0000000 41.2
2021-02-23 02:45:00 27.4 67.1 17.9 27.4 27.4 1.2 1.7 0.6 217.4 232.6 0.00 0.0000000 41.1
2021-02-23 02:50:00 27.5 67.4 18.1 27.5 27.5 0.0 1.5 0.6 142.1 226.9 0.00 0.0000000 41.0
2021-02-23 02:55:00 27.1 68.0 17.9 27.1 27.1 0.0 0.8 0.1 117.7 110.2 0.00 0.0000000 40.9
2021-02-23 03:00:00 26.8 69.3 18.1 26.8 26.8 0.0 0.0 0.0 251.9 0.0 0.00 0.0000000 40.9
2021-02-23 03:05:00 26.6 68.7 17.6 26.6 26.6 1.9 1.9 0.8 246.0 244.5 0.00 0.0000000 40.8
2021-02-23 03:10:00 26.5 69.3 17.8 26.5 26.5 1.2 2.8 2.0 314.9 289.2 0.00 0.0000000 40.7
2021-02-23 03:15:00 26.4 69.5 17.7 26.4 26.4 1.2 1.5 1.0 187.9 223.3 0.00 0.0000000 40.7
2021-02-23 03:20:00 26.0 70.4 17.7 26.0 26.0 0.0 1.3 0.2 24.2 172.8 0.00 0.0000000 40.6
2021-02-23 03:25:00 25.4 70.5 17.1 25.4 25.4 0.0 0.0 0.0 75.3 0.0 0.00 0.0000000 40.5
2021-02-23 03:30:00 25.1 72.4 17.5 25.1 25.1 0.0 0.0 0.0 75.5 0.0 0.00 0.0000000 40.4
2021-02-23 03:35:00 25.0 73.2 17.7 25.0 25.0 0.0 0.0 0.0 74.7 0.0 0.00 0.0000000 40.4
2021-02-23 03:40:00 25.1 73.7 17.9 25.1 25.1 1.0 1.0 0.1 210.5 210.5 0.00 0.0000000 40.3
2021-02-23 03:45:00 25.4 72.4 17.8 25.4 25.4 0.0 1.5 1.1 299.4 233.7 0.00 0.0000000 40.2
2021-02-23 03:50:00 25.5 72.1 17.8 25.5 25.5 1.2 1.5 0.5 207.2 233.9 0.00 0.0000000 40.2
2021-02-23 03:55:00 25.5 72.7 18.0 25.5 25.5 0.0 1.2 0.7 126.0 188.9 0.00 0.0000000 40.1
2021-02-23 04:00:00 25.1 73.6 17.8 25.1 25.1 0.0 0.0 0.0 229.8 0.0 0.00 0.0000000 40.0
2021-02-23 04:05:00 25.0 74.3 18.0 25.0 25.0 0.0 0.0 0.0 345.3 0.0 0.00 0.0000000 40.0
2021-02-23 04:10:00 25.0 73.7 17.8 25.0 25.0 1.2 1.7 0.7 213.7 219.0 0.00 0.0000000 39.9
2021-02-23 04:15:00 25.0 73.5 17.7 25.0 25.0 0.0 1.2 0.2 215.4 215.1 0.00 0.0000000 39.8
2021-02-23 04:20:00 24.5 74.1 17.4 24.5 24.5 0.0 0.8 0.1 293.7 298.3 0.00 0.0000000 39.7
2021-02-23 04:25:00 24.2 73.7 17.0 24.2 24.2 0.0 0.0 0.0 291.6 0.0 0.00 0.0000000 39.7
2021-02-23 04:30:00 24.0 75.7 17.5 24.0 24.0 1.7 1.7 0.9 7.0 358.1 0.00 0.0000000 39.6
2021-02-23 04:35:00 24.1 75.3 17.4 24.1 24.1 0.0 1.7 0.5 344.2 353.0 0.00 0.0000000 39.5
2021-02-23 04:40:00 24.2 76.2 17.8 24.2 24.2 0.0 0.0 0.0 13.6 0.0 0.00 0.0000000 39.5
2021-02-23 04:45:00 23.9 75.6 17.3 23.9 23.9 0.0 0.0 0.0 13.6 0.0 0.00 0.0000000 39.4
2021-02-23 04:50:00 23.2 76.1 16.8 23.2 23.2 0.0 0.0 0.0 232.3 0.0 0.00 0.0000000 39.4
2021-02-23 04:55:00 23.3 77.6 17.3 23.3 23.3 0.0 1.2 0.1 230.5 248.2 0.00 0.0000000 39.3
2021-02-23 05:00:00 23.4 77.7 17.4 23.4 23.4 0.0 0.0 0.0 71.4 0.0 0.00 0.0000000 39.2
2021-02-23 05:05:00 23.3 77.2 17.2 23.3 23.3 0.8 1.0 0.2 210.8 208.2 0.00 0.0000000 39.2
2021-02-23 05:10:00 23.1 77.8 17.2 23.1 23.1 0.0 1.0 0.0 236.9 210.8 0.00 0.0000000 39.1
2021-02-23 05:15:00 23.4 76.9 17.2 23.4 23.4 2.4 2.4 1.3 209.2 203.3 0.00 0.0000000 39.1
2021-02-23 05:20:00 23.0 77.9 17.2 23.0 23.0 1.3 2.4 2.0 205.5 208.9 0.00 0.0000000 39.0
2021-02-23 05:25:00 23.1 79.0 17.6 23.1 23.1 1.5 2.4 1.8 223.1 212.3 0.00 0.0000000 38.9
2021-02-23 05:30:00 22.8 78.4 17.1 22.8 22.8 1.3 2.2 1.5 221.8 217.7 0.00 0.0000000 38.9
2021-02-23 05:35:00 22.9 79.2 17.4 22.9 22.9 0.0 1.3 0.4 237.5 237.8 0.00 0.0000000 38.8
2021-02-23 05:40:00 22.6 79.6 17.3 22.6 22.6 0.0 0.0 0.0 227.1 0.0 0.00 0.0000000 38.8
2021-02-23 05:45:00 22.9 78.8 17.3 22.9 22.9 0.0 1.5 0.7 225.1 225.0 0.00 0.0000000 38.7
2021-02-23 05:50:00 22.9 78.9 17.3 22.9 22.9 0.8 0.8 0.1 244.7 244.4 0.00 0.0000000 38.6
2021-02-23 05:55:00 22.8 78.5 17.2 22.8 22.8 0.0 1.5 0.5 235.3 242.6 0.00 0.0000000 38.6
2021-02-23 06:00:00 23.0 78.1 17.2 23.0 23.0 0.0 0.0 0.0 256.2 0.0 0.00 0.0000000 38.5
2021-02-23 06:05:00 22.6 79.0 17.0 22.6 22.6 0.0 0.0 0.0 256.3 0.0 0.00 0.0000000 38.5
2021-02-23 06:10:00 22.3 79.6 17.0 22.3 22.3 0.0 0.0 0.0 40.9 0.0 0.00 0.0000000 38.4
2021-02-23 06:15:00 22.0 80.7 17.0 22.0 22.0 0.0 1.2 0.3 36.3 39.8 0.00 0.0000000 38.4
2021-02-23 06:20:00 21.6 80.2 16.4 21.6 21.6 0.0 0.0 0.0 42.9 0.0 0.00 0.0000000 38.3
2021-02-23 06:25:00 21.5 80.8 16.5 21.5 21.5 0.0 0.0 0.0 42.9 0.0 0.00 0.0000000 38.3
2021-02-23 06:30:00 21.2 80.0 16.0 21.2 21.2 0.0 0.0 0.0 42.9 0.0 0.00 0.0010000 38.2
2021-02-23 06:35:00 21.2 82.3 16.6 21.2 21.2 0.0 0.0 0.0 50.8 0.0 0.00 0.0020000 38.2
2021-02-23 06:40:00 21.2 83.6 17.0 21.2 21.2 0.0 0.0 0.0 35.8 0.0 0.00 0.0030000 38.1
2021-02-23 06:45:00 21.3 84.9 17.5 21.3 21.3 0.0 0.0 0.0 67.8 0.0 0.00 0.0040000 38.1
2021-02-23 06:50:00 21.2 84.4 17.2 21.2 21.2 0.0 0.0 0.0 64.9 0.0 0.00 0.0050000 38.0
2021-02-23 06:55:00 21.1 83.5 16.9 21.1 21.1 0.0 0.0 0.0 67.8 0.0 0.00 0.0070000 38.0
2021-02-23 07:00:00 21.2 84.3 17.2 21.2 21.2 0.0 0.0 0.0 67.9 0.0 0.00 0.0090000 37.9
2021-02-23 07:05:00 21.5 84.3 17.5 21.5 21.5 0.0 0.0 0.0 31.1 0.0 0.00 0.0090000 37.9
2021-02-23 07:10:00 21.6 83.8 17.5 21.6 21.6 0.0 0.0 0.0 30.5 0.0 0.00 0.0100000 37.8
2021-02-23 07:15:00 21.7 84.2 17.6 21.7 21.7 0.0 0.0 0.0 346.3 0.0 0.00 0.0140000 37.8
2021-02-23 07:20:00 21.9 83.6 17.7 21.9 21.9 0.0 0.0 0.0 333.7 0.0 0.00 0.0130000 37.7
2021-02-23 07:25:00 22.1 82.3 17.5 22.1 22.1 0.0 1.2 0.2 4.6 0.7 0.00 0.0170000 37.7
2021-02-23 07:30:00 22.4 79.8 17.1 22.4 22.4 0.0 0.0 0.0 344.9 0.0 0.00 0.0190000 37.6
2021-02-23 07:35:00 22.5 79.0 17.0 22.5 22.5 0.0 1.7 0.7 1.4 5.1 0.00 0.0310000 37.6
2021-02-23 07:40:00 22.9 80.3 17.7 22.9 22.9 1.5 1.7 0.7 27.5 1.2 0.00 0.0220000 37.5
2021-02-23 07:45:00 23.8 81.4 19.0 23.8 23.8 1.3 1.7 1.3 31.7 29.6 0.00 0.0380000 37.5
2021-02-23 07:50:00 24.9 81.4 20.0 24.9 24.9 2.4 3.1 2.0 51.2 35.8 0.00 0.1750000 37.5
2021-02-23 07:55:00 25.5 79.2 20.0 25.5 25.5 2.6 3.1 2.7 33.3 37.1 0.00 0.1690000 37.4
2021-02-23 08:00:00 26.1 76.4 19.7 26.1 26.1 1.9 3.0 2.3 49.9 45.5 0.00 0.2120000 37.4
2021-02-23 08:05:00 27.1 74.4 20.0 27.1 27.1 2.4 3.0 2.5 33.2 40.8 0.00 0.2280000 37.3
2021-02-23 08:10:00 28.0 72.4 20.3 28.0 28.0 2.8 3.3 2.3 32.3 46.6 0.00 0.2450000 37.3
2021-02-23 08:15:00 28.8 69.8 20.2 28.8 28.8 2.8 3.0 2.4 39.2 44.9 0.00 0.2630000 37.3
2021-02-23 08:20:00 30.1 68.5 20.9 30.1 30.1 2.1 3.1 2.4 19.7 36.9 0.00 0.2820000 37.2
2021-02-23 08:25:00 30.9 65.8 20.8 30.9 30.9 2.4 3.1 2.5 23.5 28.6 0.00 0.2950000 37.2
2021-02-23 08:30:00 32.2 62.9 21.0 32.2 32.2 2.4 3.3 2.2 45.6 43.1 0.00 0.3260000 37.2
2021-02-23 08:35:00 32.7 62.6 21.3 32.7 32.7 2.2 2.8 2.0 22.5 40.6 0.00 0.3360000 37.1
2021-02-23 08:40:00 33.8 60.0 21.3 33.8 33.8 1.9 2.4 1.9 29.1 43.4 0.00 0.3840000 37.1
2021-02-23 08:45:00 34.7 59.1 21.8 34.7 34.7 1.9 3.1 2.1 47.8 35.2 0.00 0.3940000 37.1
2021-02-23 08:50:00 36.3 55.6 21.9 36.3 36.3 0.0 2.4 1.2 83.0 33.7 0.00 0.4430000 37.1
2021-02-23 08:55:00 38.2 49.3 20.8 38.2 38.2 0.0 3.1 1.4 24.5 202.3 0.00 0.2950000 37.1
2021-02-23 09:00:00 37.9 51.2 21.5 37.9 37.9 1.0 2.8 1.5 12.2 41.4 0.00 0.1980000 37.0
2021-02-23 09:05:00 38.7 49.8 21.5 38.7 38.7 1.3 2.6 0.8 196.8 184.0 0.00 0.3720000 37.0
2021-02-23 09:10:00 39.8 46.4 20.9 39.8 39.8 1.2 1.7 0.9 20.1 253.1 0.00 0.5130000 37.0
2021-02-23 09:15:00 39.9 46.6 21.1 39.9 39.9 3.0 3.5 2.4 202.4 218.6 0.00 0.4780000 37.1
2021-02-23 09:20:00 41.4 43.3 20.7 41.4 41.4 1.9 2.8 1.6 207.5 227.8 0.00 0.5320000 37.1
2021-02-23 09:25:00 43.3 42.3 21.9 43.3 43.3 0.0 2.1 1.4 95.6 126.0 0.00 0.5400000 37.2
2021-02-23 09:30:00 45.0 40.7 22.5 45.0 45.0 1.3 1.9 1.3 101.6 227.8 0.00 0.5490000 37.2
2021-02-23 09:35:00 45.3 38.6 21.5 44.0 45.3 3.3 3.3 1.9 49.1 36.5 0.00 0.5620000 37.3
2021-02-23 09:40:00 44.5 37.9 20.4 44.5 44.5 1.9 3.1 2.4 15.7 44.4 0.00 0.5580000 37.5
2021-02-23 09:45:00 44.8 36.2 19.6 44.8 44.8 1.2 3.0 1.9 103.3 65.1 0.00 0.4520000 37.6
2021-02-23 09:50:00 44.7 37.1 20.0 44.7 44.7 1.3 3.5 2.2 133.9 52.6 0.00 0.5640000 37.8
2021-02-23 09:55:00 47.0 35.3 20.9 47.0 47.0 1.5 1.7 1.0 39.1 46.2 0.00 0.5860000 38.0
2021-02-23 10:00:00 47.1 35.6 21.3 47.1 47.1 1.9 3.3 2.3 37.1 108.4 0.00 0.6180000 38.1
2021-02-23 10:05:00 47.4 35.6 21.5 46.1 47.4 3.7 3.7 2.5 66.3 76.0 0.00 0.5960000 38.3
2021-02-23 10:10:00 46.9 34.8 20.5 46.9 46.9 1.2 4.2 2.2 293.4 48.3 0.00 0.6380000 38.5
2021-02-23 10:15:00 47.5 34.5 20.9 47.5 47.5 1.2 3.5 2.4 27.8 26.9 0.00 0.6660000 38.7
2021-02-23 10:20:00 50.2 30.7 20.5 50.2 50.2 2.8 3.1 2.1 69.5 147.1 0.00 0.7240000 38.9
2021-02-23 10:25:00 51.2 30.6 21.3 51.2 51.2 0.8 2.4 1.4 133.2 88.3 0.00 0.7630000 39.1
2021-02-23 10:30:00 50.0 30.8 20.4 50.0 50.0 3.0 4.9 3.1 45.5 107.9 0.00 0.7710000 39.3
2021-02-23 10:35:00 49.2 32.4 20.8 49.2 49.2 1.0 4.9 2.9 113.5 38.7 0.00 0.7100000 39.5
2021-02-23 10:40:00 50.5 30.8 20.8 50.5 50.5 2.4 3.5 1.9 20.2 63.9 0.00 0.6860000 39.8
2021-02-23 10:45:00 50.9 29.6 20.2 50.9 50.9 2.1 4.0 2.3 278.0 270.0 0.00 0.4260000 40.0
2021-02-23 10:50:00 51.0 30.2 20.8 51.0 51.0 2.6 4.0 2.4 72.1 324.4 0.00 0.2020000 40.3
2021-02-23 10:55:00 50.1 30.8 20.5 50.1 50.1 1.3 3.5 2.0 65.7 135.2 0.00 0.1290000 40.6
2021-02-23 11:00:00 49.9 30.8 20.3 49.9 49.9 1.0 1.5 1.0 147.5 350.1 0.00 0.5350000 40.9
2021-02-23 11:05:00 51.2 28.8 19.8 51.2 51.2 1.5 3.3 1.8 37.5 167.8 0.00 0.1680000 41.1
2021-02-23 11:10:00 51.0 29.0 19.9 51.0 51.0 2.2 3.1 1.5 61.9 54.5 0.00 0.5910000 41.4
2021-02-23 11:15:00 50.6 29.9 20.2 50.6 50.6 3.3 4.2 2.4 43.4 43.6 0.00 0.4830000 41.6
2021-02-23 11:20:00 51.5 29.0 20.2 51.5 51.5 1.0 4.2 2.5 45.7 54.5 0.00 0.6680000 41.9
2021-02-23 11:25:00 53.0 27.2 20.1 53.0 53.0 2.8 3.8 2.3 83.1 95.6 0.00 0.7410000 42.1
2021-02-23 11:30:00 52.6 28.9 21.2 52.6 52.6 3.7 4.4 3.0 51.4 54.9 0.00 0.5350000 42.3
2021-02-23 11:35:00 51.7 28.9 20.4 51.7 51.7 5.3 6.0 3.9 66.8 21.3 0.00 0.7480000 42.6
2021-02-23 11:40:00 52.4 28.8 20.9 52.4 52.4 1.2 5.1 2.7 14.2 23.0 0.00 0.7770000 42.8
2021-02-23 11:45:00 53.7 27.9 21.3 53.7 53.7 3.8 3.8 2.4 95.6 69.1 0.00 0.7820000 43.0
2021-02-23 11:50:00 53.4 26.6 19.8 53.4 53.4 3.0 4.6 3.0 272.4 218.7 0.00 0.7030000 43.3
2021-02-23 11:55:00 53.7 25.9 19.5 53.7 53.7 2.4 5.1 3.0 239.6 221.5 0.00 0.7400000 43.6
2021-02-23 12:00:00 55.2 24.8 19.8 55.2 55.2 2.4 3.0 1.8 45.6 309.4 0.00 0.7080000 43.8
2021-02-23 12:05:00 55.0 25.0 19.8 55.0 55.0 2.6 7.6 2.8 232.1 193.8 0.00 0.7790000 44.1
2021-02-23 12:10:00 56.6 24.2 20.3 56.6 56.6 3.3 4.6 2.6 260.9 266.5 0.00 0.7450000 44.4
2021-02-23 12:15:00 56.2 23.4 19.3 56.2 56.2 5.1 5.8 4.1 233.4 229.7 0.00 0.6620000 44.7
2021-02-23 12:20:00 55.7 24.0 19.5 55.7 55.7 1.7 5.5 2.8 14.5 267.3 0.00 0.7470000 45.0
2021-02-23 12:25:00 54.3 24.4 18.6 54.3 54.3 2.8 6.0 3.4 38.4 29.6 0.00 0.2410000 45.3
2021-02-23 12:30:00 53.8 25.7 19.4 53.8 53.8 2.8 4.0 3.2 26.1 30.8 0.00 0.2000000 45.6
2021-02-23 12:35:00 54.1 25.3 19.4 54.1 54.1 2.8 4.0 2.8 38.2 31.2 0.00 0.3860000 45.8
2021-02-23 12:40:00 56.0 23.7 19.4 56.0 56.0 2.4 3.5 2.4 194.3 135.7 0.00 0.7290000 46.1
2021-02-23 12:45:00 56.6 23.7 19.9 56.6 56.6 4.2 5.1 3.3 245.4 200.5 0.00 0.8080000 46.4
2021-02-23 12:50:00 56.6 24.5 20.7 56.6 56.6 2.8 6.2 3.8 303.8 249.4 0.00 0.7430000 46.6
2021-02-23 12:55:00 57.9 22.7 19.9 57.9 57.9 1.5 4.9 2.7 303.6 303.6 0.00 0.5790000 46.9
2021-02-23 13:00:00 57.6 23.7 20.7 57.6 57.6 2.2 3.5 2.1 169.0 63.6 0.00 0.4020000 47.1
2021-02-23 13:05:00 58.0 23.9 21.3 58.0 58.0 2.1 5.1 2.9 128.8 157.2 0.00 0.7940000 47.3
2021-02-23 13:10:00 59.0 21.9 20.1 59.0 59.0 1.3 3.3 1.8 308.4 340.3 0.00 0.7430000 47.5
2021-02-23 13:15:00 58.4 22.4 20.1 58.4 58.4 1.9 7.2 2.8 306.2 5.2 0.00 0.3730000 47.8
2021-02-23 13:20:00 59.5 22.5 21.2 59.5 59.5 1.0 2.4 1.4 148.6 113.1 0.00 0.7120000 48.0
2021-02-23 13:25:00 60.4 20.9 20.1 60.4 60.4 3.0 4.0 2.1 196.1 199.3 0.00 0.6990000 48.2
2021-02-23 13:30:00 60.5 20.2 19.5 60.5 60.5 1.0 4.2 2.4 198.7 79.2 0.00 0.6880000 48.4
2021-02-23 13:35:00 60.5 20.7 20.0 60.5 60.5 0.0 4.0 2.3 188.0 5.7 0.00 0.7020000 48.7
2021-02-23 13:40:00 60.8 19.3 18.6 60.8 60.8 4.9 6.5 3.0 192.1 170.3 0.00 0.7070000 48.9
2021-02-23 13:45:00 60.4 20.1 19.2 60.4 60.4 2.8 5.6 4.0 244.3 197.9 0.00 0.6150000 49.1
2021-02-23 13:50:00 60.6 20.0 19.3 60.6 60.6 1.5 3.5 2.2 270.8 320.4 0.00 0.6560000 49.4
2021-02-23 13:55:00 60.8 20.3 19.8 60.8 60.8 4.0 4.0 2.8 26.7 17.2 0.00 0.6860000 49.6
2021-02-23 14:00:00 62.6 18.8 19.5 62.6 62.6 2.1 3.8 2.1 242.1 106.4 0.00 0.7110000 49.8
2021-02-23 14:05:00 63.1 17.6 18.4 63.1 63.1 6.0 6.3 2.9 238.8 192.8 0.00 0.6870000 50.1
2021-02-23 14:10:00 62.3 18.4 18.7 62.3 62.3 2.8 6.2 2.7 18.9 21.0 0.00 0.5880000 50.3
2021-02-23 14:15:00 62.7 18.3 18.9 62.7 62.7 3.5 4.0 2.5 301.0 328.7 0.00 0.7110000 50.5
2021-02-23 14:20:00 63.0 17.9 18.6 63.0 63.0 2.1 4.4 1.8 69.0 5.1 0.00 0.7120000 50.7
2021-02-23 14:25:00 63.0 18.6 19.6 63.0 63.0 2.6 4.0 1.8 49.0 15.6 0.00 0.6640000 51.0
2021-02-23 14:30:00 62.9 17.9 18.5 62.9 62.9 1.7 4.7 3.1 17.2 32.9 0.00 0.6290000 51.2
2021-02-23 14:35:00 63.2 16.9 17.5 63.2 63.2 3.0 4.4 2.2 191.3 310.8 0.00 0.5950000 51.4
2021-02-23 14:40:00 63.7 16.8 17.7 63.7 63.7 1.2 4.7 2.7 9.6 208.2 0.00 0.5150000 51.6
2021-02-23 14:45:00 64.4 16.6 18.0 64.4 64.4 2.1 4.0 2.8 278.0 273.5 0.00 0.5700000 51.8
2021-02-23 14:50:00 65.8 16.0 18.2 65.8 65.8 0.0 2.8 0.9 305.1 49.3 0.00 0.5400000 52.0
2021-02-23 14:55:00 65.4 15.7 17.6 65.4 65.4 6.0 6.2 2.9 202.8 191.0 0.00 0.5460000 52.2
2021-02-23 15:00:00 64.8 15.8 17.2 64.8 64.8 3.1 6.0 3.3 222.4 195.4 0.00 0.5280000 52.4
2021-02-23 15:05:00 65.6 15.3 17.2 65.6 65.6 3.1 5.5 3.6 182.1 205.0 0.00 0.5110000 52.5
2021-02-23 15:10:00 65.9 15.7 17.9 65.9 65.9 3.3 5.6 2.7 205.8 182.7 0.00 0.4580000 52.7
2021-02-23 15:15:00 65.2 15.0 16.4 65.2 65.2 4.9 6.0 3.3 243.9 208.3 0.00 0.4970000 52.9
2021-02-23 15:20:00 65.4 15.0 16.6 65.4 65.4 1.9 4.7 3.2 232.5 225.1 0.00 0.3100000 53.0
2021-02-23 15:25:00 64.8 15.1 16.1 64.8 64.8 3.5 4.6 2.6 211.4 186.2 0.00 0.1330000 53.2
2021-02-23 15:30:00 64.5 16.4 17.8 64.5 64.5 1.7 3.0 2.0 235.3 186.4 0.00 0.3780000 53.3
2021-02-23 15:35:00 65.1 15.9 17.5 65.1 65.1 2.6 4.2 2.1 70.1 180.2 0.00 0.3930000 53.4
2021-02-23 15:40:00 65.6 14.8 16.4 65.6 65.6 2.6 6.2 3.7 175.1 188.7 0.00 0.1770000 53.5
2021-02-23 15:45:00 66.1 13.5 14.7 66.1 66.1 6.0 7.2 4.6 203.2 198.1 0.00 0.0880000 53.6
2021-02-23 15:50:00 66.0 13.6 14.7 66.0 66.0 5.8 9.6 6.4 178.7 198.9 0.00 0.0720000 53.6
2021-02-23 15:55:00 65.4 13.8 14.6 65.4 65.4 5.1 7.1 4.7 244.7 203.7 0.00 0.1610000 53.7
2021-02-23 16:00:00 66.0 13.5 14.6 66.0 66.0 5.6 6.0 4.0 214.0 204.7 0.00 0.0910000 53.7
2021-02-23 16:05:00 66.1 13.6 14.8 66.1 66.1 2.4 6.5 3.9 240.9 224.6 0.00 0.3690000 53.8
2021-02-23 16:10:00 66.4 13.9 15.5 66.4 66.4 4.6 8.1 5.2 205.2 216.9 0.00 0.1250000 53.8
2021-02-23 16:15:00 66.1 13.9 15.3 66.1 66.1 3.3 7.2 5.0 217.1 216.7 0.00 0.2400000 53.8
2021-02-23 16:20:00 67.1 13.9 16.0 67.1 67.1 4.7 6.9 4.9 252.0 223.6 0.00 0.3230000 53.8
2021-02-23 16:25:00 67.9 13.3 15.8 67.9 67.9 4.6 6.0 4.6 235.3 215.1 0.00 0.3040000 53.8
2021-02-23 16:30:00 68.3 13.1 15.7 68.3 68.3 2.1 6.3 3.9 237.4 231.6 0.00 0.2770000 53.8
2021-02-23 16:35:00 68.0 12.6 14.6 68.0 68.0 4.9 8.1 5.0 271.9 238.0 0.00 0.2600000 53.8
2021-02-23 16:40:00 68.0 11.4 12.3 68.0 68.0 6.2 8.8 5.0 220.0 263.8 0.00 0.0720000 53.8
2021-02-23 16:45:00 66.9 12.3 13.1 66.9 66.9 4.2 8.3 4.5 260.7 237.5 0.00 0.1060000 53.7
2021-02-23 16:50:00 66.7 12.1 12.6 66.7 66.7 9.2 9.2 4.4 270.1 243.7 0.00 0.1350000 53.7
2021-02-23 16:55:00 66.4 10.6 9.4 66.4 66.4 9.6 11.3 7.3 289.8 266.4 0.00 0.0390000 53.7
2021-02-23 17:00:00 66.9 11.0 10.7 66.9 66.9 4.0 9.7 6.2 251.5 270.7 0.00 0.0440000 53.7
2021-02-23 17:05:00 66.9 11.6 11.8 66.9 66.9 7.1 8.8 5.9 313.7 258.6 0.00 0.0320000 53.7
2021-02-23 17:10:00 65.7 11.2 10.2 65.7 65.7 6.3 10.1 5.2 276.2 250.8 0.00 0.0240000 53.7
2021-02-23 17:15:00 64.5 11.4 9.6 64.5 64.5 6.9 10.3 6.0 261.3 254.7 0.00 0.0180000 53.6
2021-02-23 17:20:00 63.5 12.2 10.3 63.5 63.5 4.6 8.3 4.3 213.5 253.5 0.00 0.0160000 53.6
2021-02-23 17:25:00 62.9 13.3 11.7 62.9 62.9 4.9 7.4 5.0 249.9 268.1 0.00 0.0180000 53.5
2021-02-23 17:30:00 62.7 14.2 13.0 62.7 62.7 4.6 8.3 4.8 304.3 268.9 0.00 0.0170000 53.5
2021-02-23 17:35:00 62.6 14.3 13.1 62.6 62.6 5.3 9.2 5.5 300.3 263.1 0.00 0.0160000 53.4
2021-02-23 17:40:00 62.8 13.7 12.3 62.8 62.8 4.7 10.1 6.7 97.4 283.8 0.00 0.0140000 53.4
2021-02-23 17:45:00 62.1 14.1 12.4 62.1 62.1 4.0 8.8 5.5 290.5 264.5 0.00 0.0120000 53.3
2021-02-23 17:50:00 61.8 14.4 12.7 61.8 61.8 7.1 9.0 5.3 242.3 269.4 0.00 0.0080000 53.2
2021-02-23 17:55:00 61.2 14.7 12.7 61.2 61.2 2.1 9.0 4.7 297.4 283.8 0.00 0.0050000 53.2
2021-02-23 18:00:00 60.6 15.2 12.9 60.6 60.6 3.3 5.6 3.3 279.0 283.1 0.00 0.0040000 53.1
2021-02-23 18:05:00 59.9 15.4 12.7 59.9 59.9 1.0 6.7 3.1 314.9 284.9 0.00 0.0030000 53.0
2021-02-23 18:10:00 59.1 15.6 12.3 59.1 59.1 2.6 5.6 2.6 214.7 270.0 0.00 0.0010000 52.9
2021-02-23 18:15:00 58.7 15.1 11.3 58.7 58.7 5.3 5.3 2.7 263.6 272.0 0.00 0.0000000 52.8
2021-02-23 18:20:00 57.9 15.4 11.1 57.9 57.9 3.8 4.7 3.1 202.4 256.9 0.00 0.0000000 52.8
2021-02-23 18:25:00 57.5 15.8 11.3 57.5 57.5 2.1 4.4 2.5 136.1 237.7 0.00 0.0000000 52.6
2021-02-23 18:30:00 56.5 16.7 11.8 56.5 56.5 2.1 3.7 2.7 215.5 232.0 0.00 0.0000000 52.6
2021-02-23 18:35:00 56.0 17.1 11.9 56.0 56.0 1.7 3.3 2.2 217.8 236.3 0.00 0.0000000 52.5
2021-02-23 18:40:00 54.8 18.2 12.3 54.8 54.8 1.9 4.2 2.6 233.4 237.5 0.00 0.0000000 52.4
2021-02-23 18:45:00 54.0 19.1 12.7 54.0 54.0 2.2 4.0 2.4 236.3 249.1 0.00 0.0000000 52.3
2021-02-23 18:50:00 52.9 20.3 13.2 52.9 52.9 2.4 4.6 2.4 223.2 238.5 0.00 0.0000000 52.2
2021-02-23 18:55:00 51.9 21.3 13.6 51.9 51.9 2.2 3.5 2.3 282.3 266.4 0.00 0.0000000 52.1
2021-02-23 19:00:00 50.7 22.7 13.9 50.7 50.7 2.6 3.0 2.0 237.4 247.5 0.00 0.0000000 51.9
2021-02-23 19:05:00 49.5 23.4 13.6 49.5 49.5 1.7 3.7 2.3 200.9 241.1 0.00 0.0000000 51.9
2021-02-23 19:10:00 48.7 24.7 14.1 48.7 48.7 1.3 2.8 1.8 15.4 285.5 0.00 0.0000000 51.7
2021-02-23 19:15:00 48.7 23.5 12.9 48.7 48.7 2.1 4.0 2.4 167.1 266.7 0.00 0.0000000 51.6
2021-02-23 19:20:00 49.2 22.0 11.9 48.2 49.2 3.7 4.9 2.8 313.4 266.6 0.00 0.0000000 51.5
2021-02-23 19:25:00 50.6 20.8 11.9 50.6 50.6 1.5 3.1 2.2 308.8 284.3 0.00 0.0000000 51.4
2021-02-23 19:30:00 51.4 20.0 11.6 51.4 51.4 1.0 4.7 2.7 117.8 263.5 0.00 0.0000000 51.3
2021-02-23 19:35:00 51.9 19.7 11.7 51.9 51.9 2.4 4.4 2.5 265.1 291.8 0.00 0.0000000 51.2
2021-02-23 19:40:00 51.8 20.1 12.1 51.8 51.8 3.7 4.4 3.1 265.9 288.6 0.00 0.0000000 51.0
2021-02-23 19:45:00 51.4 20.6 12.3 51.4 51.4 2.2 4.6 2.8 224.7 264.1 0.00 0.0000000 50.9
2021-02-23 19:50:00 50.8 20.8 12.1 50.8 50.8 1.9 4.2 2.6 203.5 249.7 0.00 0.0000000 50.8
2021-02-23 19:55:00 50.2 21.6 12.4 50.2 50.2 2.1 4.4 2.3 199.4 231.0 0.00 0.0000000 50.7
2021-02-23 20:00:00 49.5 22.4 12.6 49.0 49.5 3.1 3.1 2.3 221.3 221.4 0.00 0.0000000 50.6
2021-02-23 20:05:00 48.8 22.8 12.4 48.8 48.8 1.9 3.1 2.5 186.4 216.9 0.00 0.0000000 50.5
2021-02-23 20:10:00 48.7 23.0 12.5 48.7 48.7 2.2 2.8 2.3 231.2 219.3 0.00 0.0000000 50.4
2021-02-23 20:15:00 48.5 23.1 12.5 48.5 48.5 0.0 3.7 1.8 225.0 220.3 0.00 0.0000000 50.3
2021-02-23 20:20:00 48.0 23.8 12.7 48.0 48.0 2.1 2.2 1.5 244.6 218.2 0.00 0.0000000 50.1
2021-02-23 20:25:00 47.5 23.9 12.4 47.5 47.5 1.5 1.7 0.9 156.0 200.8 0.00 0.0000000 50.0
2021-02-23 20:30:00 46.9 24.3 12.2 46.9 46.9 0.0 1.5 0.5 125.3 169.8 0.00 0.0000000 49.9
2021-02-23 20:35:00 46.2 26.2 13.3 46.2 46.2 1.5 1.5 1.0 200.9 179.4 0.00 0.0000000 49.8
2021-02-23 20:40:00 45.9 26.9 13.7 45.9 45.9 0.0 2.2 1.5 223.2 202.9 0.00 0.0000000 49.7
2021-02-23 20:45:00 45.0 26.3 12.4 45.0 45.0 0.0 1.5 0.8 45.9 183.4 0.00 0.0000000 49.6
2021-02-23 20:50:00 44.6 28.3 13.7 44.6 44.6 1.5 2.4 1.2 35.6 22.7 0.00 0.0000000 49.5
2021-02-23 20:55:00 44.6 27.8 13.4 44.6 44.6 1.7 2.8 1.7 322.0 324.5 0.00 0.0000000 49.4
2021-02-23 21:00:00 45.0 27.6 13.4 45.0 45.0 1.3 1.3 0.5 257.0 255.3 0.00 0.0000000 49.3
2021-02-23 21:05:00 44.8 29.1 14.5 44.8 44.8 0.0 1.0 0.1 165.5 207.0 0.00 0.0000000 49.2
2021-02-23 21:10:00 44.3 29.3 14.3 44.3 44.3 0.8 1.9 0.6 190.4 220.0 0.00 0.0000000 49.1
2021-02-23 21:15:00 43.6 30.7 14.7 43.6 43.6 1.3 2.2 1.5 195.7 191.7 0.00 0.0000000 49.0
2021-02-23 21:20:00 44.0 29.2 13.9 44.0 44.0 0.0 2.4 1.3 207.7 199.9 0.00 0.0000000 48.8
2021-02-23 21:25:00 44.8 28.2 13.8 42.9 44.8 4.0 7.6 2.7 46.9 32.9 0.00 0.0000000 48.8
2021-02-23 21:30:00 45.9 26.1 13.0 44.1 45.9 4.0 6.0 2.9 23.9 30.7 0.00 0.0000000 48.7
2021-02-23 21:35:00 48.0 24.2 13.0 48.0 48.0 2.2 5.8 2.8 14.8 17.2 0.00 0.0000000 48.5
2021-02-23 21:40:00 49.0 23.1 12.9 48.1 49.0 3.5 4.9 2.8 265.5 340.8 0.00 0.0000000 48.5
2021-02-23 21:45:00 50.1 22.9 13.6 50.1 50.1 3.0 4.7 3.2 252.6 353.3 0.00 0.0000000 48.3
2021-02-23 21:50:00 50.2 24.5 15.2 50.2 50.2 2.8 3.5 2.3 33.7 10.6 0.00 0.0000000 48.3
2021-02-23 21:55:00 50.0 25.5 16.0 50.0 50.0 1.7 3.5 2.3 3.2 14.0 0.00 0.0000000 48.2
2021-02-23 22:00:00 49.1 26.9 16.4 49.1 49.1 2.2 3.7 2.4 8.9 24.8 0.00 0.0000000 48.1
2021-02-23 22:05:00 48.3 28.6 17.1 48.3 48.3 1.3 2.2 1.2 19.7 6.7 0.00 0.0000000 48.0
2021-02-23 22:10:00 48.4 29.1 17.6 48.4 48.4 2.4 3.1 2.2 43.6 29.6 0.00 0.0000000 47.9
2021-02-23 22:15:00 47.8 29.5 17.4 47.8 47.8 2.6 3.5 2.6 47.5 40.1 0.00 0.0000000 47.8
2021-02-23 22:20:00 47.1 30.7 17.7 47.1 47.1 2.8 3.7 3.1 33.8 40.8 0.00 0.0000000 47.7
2021-02-23 22:25:00 46.1 31.8 17.7 46.1 46.1 1.9 3.5 2.8 45.3 38.7 0.00 0.0000000 47.6
2021-02-23 22:30:00 46.0 30.7 16.8 44.1 46.0 4.2 4.2 2.7 37.3 37.2 0.00 0.0000000 47.6
2021-02-23 22:35:00 45.1 31.8 16.8 45.1 45.1 2.2 4.2 2.8 20.5 32.2 0.00 0.0000000 47.5
2021-02-23 22:40:00 45.4 32.7 17.7 45.4 45.4 0.0 3.0 1.0 12.8 18.3 0.00 0.0000000 47.4
2021-02-23 22:45:00 44.5 33.7 17.7 44.5 44.5 1.5 1.5 0.2 47.4 51.0 0.00 0.0000000 47.3
2021-02-23 22:50:00 44.4 32.9 17.0 44.4 44.4 2.2 4.4 3.0 48.9 41.4 0.00 0.0000000 47.2
2021-02-23 22:55:00 43.4 34.7 17.3 43.4 43.4 1.2 2.4 1.1 154.7 56.8 0.00 0.0000000 47.1
2021-02-23 23:00:00 42.1 37.7 18.1 42.1 42.1 2.2 2.6 0.5 185.5 153.9 0.00 0.0000000 47.0
2021-02-23 23:05:00 41.6 38.3 18.1 41.6 41.6 1.0 3.7 1.5 174.9 162.1 0.00 0.0000000 47.0
2021-02-23 23:10:00 41.3 39.4 18.4 41.3 41.3 0.0 1.3 0.2 274.1 121.4 0.00 0.0000000 46.9
2021-02-23 23:15:00 40.7 40.5 18.6 40.7 40.7 0.0 1.5 0.7 92.2 75.4 0.00 0.0000000 46.8
2021-02-23 23:20:00 40.2 41.2 18.5 40.2 40.2 0.0 2.4 0.5 222.4 159.9 0.00 0.0000000 46.7
2021-02-23 23:25:00 40.1 41.2 18.4 40.1 40.1 0.0 0.0 0.0 13.8 0.0 0.00 0.0000000 46.6
2021-02-23 23:30:00 40.2 41.7 18.7 40.2 40.2 0.8 1.3 0.3 66.8 52.1 0.00 0.0000000 46.5
2021-02-23 23:35:00 40.1 42.2 18.9 40.1 40.1 2.1 2.4 1.2 246.8 30.2 0.00 0.0000000 46.5
2021-02-23 23:40:00 40.7 41.6 19.1 40.7 40.7 0.0 3.5 2.1 288.5 253.7 0.00 0.0000000 46.4
2021-02-23 23:45:00 40.1 43.1 19.5 40.1 40.1 1.7 2.1 1.5 222.6 239.9 0.00 0.0000000 46.3
2021-02-23 23:50:00 39.0 43.9 18.9 39.0 39.0 0.0 1.3 0.5 176.5 191.4 0.00 0.0000000 46.2
2021-02-23 23:55:00 38.0 45.3 18.7 38.0 38.0 1.9 2.8 1.7 168.0 172.1 0.00 0.0000000 46.1
2021-02-24 00:00:00 37.7 46.0 18.8 35.6 37.7 3.1 3.5 2.4 197.5 183.4 0.00 0.0000000 46.0

Data is courtesy of the NM Climate Center. DO NOT USE IN LEGAL PROCEEDINGS.